createdAt,value
2022-10-11T00:00:43.022Z,1017.30
2022-10-11T00:01:43.068Z,1017.25
2022-10-11T00:02:43.009Z,1017.25
2022-10-11T00:03:43.022Z,1017.34
2022-10-11T00:04:43.040Z,1017.26
2022-10-11T00:05:42.980Z,1017.27
2022-10-11T00:06:42.961Z,1017.31
2022-10-11T00:07:42.950Z,1017.33
2022-10-11T00:08:42.943Z,1017.34
2022-10-11T00:09:42.930Z,1017.33
2022-10-11T00:10:42.970Z,1017.31
2022-10-11T00:11:42.909Z,1017.35
2022-10-11T00:12:42.899Z,1017.31
2022-10-11T00:13:42.888Z,1017.31
2022-10-11T00:14:42.882Z,1017.34
2022-10-11T00:15:42.860Z,1017.33
2022-10-11T00:16:42.909Z,1017.38
2022-10-11T00:17:42.840Z,1017.37
2022-10-11T00:18:42.841Z,1017.39
2022-10-11T00:19:42.818Z,1017.44
2022-10-11T00:20:42.839Z,1017.37
2022-10-11T00:21:42.797Z,1017.41
2022-10-11T00:22:42.816Z,1017.40
2022-10-11T00:23:42.768Z,1017.38
2022-10-11T00:24:42.769Z,1017.41
2022-10-11T00:25:42.779Z,1017.40
2022-10-11T00:26:46.601Z,1017.36
2022-10-11T00:27:42.743Z,1017.36
2022-10-11T00:28:42.760Z,1017.38
2022-10-11T00:29:42.706Z,1017.38
2022-10-11T00:30:42.737Z,1017.45
2022-10-11T00:31:42.708Z,1017.39
2022-10-11T00:32:42.678Z,1017.42
2022-10-11T00:33:42.659Z,1017.42
2022-10-11T00:34:42.658Z,1017.42
2022-10-11T00:35:42.646Z,1017.45
2022-10-11T00:36:42.679Z,1017.50
2022-10-11T00:37:42.618Z,1017.50
2022-10-11T00:38:42.638Z,1017.52
2022-10-11T00:39:42.599Z,1017.54
2022-10-11T00:40:42.617Z,1017.48
2022-10-11T00:41:42.577Z,1017.52
2022-10-11T00:42:42.739Z,1017.51
2022-10-11T00:43:42.557Z,1017.52
2022-10-11T00:44:42.547Z,1017.54
2022-10-11T00:45:42.536Z,1017.54
2022-10-11T00:46:42.530Z,1017.57
2022-10-11T00:47:42.507Z,1017.58
2022-10-11T00:48:42.526Z,1017.57
2022-10-11T00:49:42.489Z,1017.55
2022-10-11T00:50:42.487Z,1017.52
2022-10-11T00:51:42.536Z,1017.54
2022-10-11T00:52:42.457Z,1017.48
2022-10-11T00:53:42.450Z,1017.55
2022-10-11T00:54:42.438Z,1017.54
2022-10-11T00:55:42.426Z,1017.56
2022-10-11T00:56:42.438Z,1017.58
2022-10-11T00:57:42.437Z,1017.58
2022-10-11T00:58:42.399Z,1017.57
2022-10-11T00:59:42.406Z,1017.58
2022-10-11T01:00:42.377Z,1017.59
2022-10-11T01:01:42.475Z,1017.61
2022-10-11T01:02:42.394Z,1017.62
2022-10-11T01:03:42.356Z,1017.63
2022-10-11T01:04:42.335Z,1017.71
2022-10-11T01:05:42.317Z,1017.70
2022-10-11T01:06:42.376Z,1017.68
2022-10-11T01:07:42.296Z,1017.72
2022-10-11T01:08:42.313Z,1017.70
2022-10-11T01:09:42.288Z,1017.70
2022-10-11T01:10:42.294Z,1017.68
2022-10-11T01:11:42.271Z,1017.71
2022-10-11T01:12:42.268Z,1017.74
2022-10-11T01:13:42.265Z,1017.77
2022-10-11T01:14:42.224Z,1017.74
2022-10-11T01:15:42.225Z,1017.81
2022-10-11T01:16:42.205Z,1017.79
2022-10-11T01:17:42.184Z,1017.76
2022-10-11T01:18:42.182Z,1017.77
2022-10-11T01:19:42.188Z,1017.77
2022-10-11T01:20:42.157Z,1017.77
2022-10-11T01:21:42.154Z,1017.75
2022-10-11T01:22:42.168Z,1017.73
2022-10-11T01:23:42.154Z,1017.72
2022-10-11T01:24:42.123Z,1017.73
2022-10-11T01:25:42.111Z,1017.74
2022-10-11T01:26:42.111Z,1017.74
2022-10-11T01:27:42.083Z,1017.74
2022-10-11T01:28:42.197Z,1017.77
2022-10-11T01:29:42.069Z,1017.77
2022-10-11T01:30:42.061Z,1017.81
2022-10-11T01:31:42.033Z,1017.82
2022-10-11T01:32:42.039Z,1017.83
2022-10-11T01:33:42.020Z,1017.86
2022-10-11T01:34:42.031Z,1017.83
2022-10-11T01:35:41.993Z,1017.82
2022-10-11T01:36:41.985Z,1017.82
2022-10-11T01:37:41.973Z,1017.84
2022-10-11T01:38:43.692Z,1017.87
2022-10-11T01:39:41.949Z,1017.85
2022-10-11T01:40:41.955Z,1017.84
2022-10-11T01:41:41.953Z,1017.86
2022-10-11T01:42:41.923Z,1017.83
2022-10-11T01:43:41.912Z,1017.85
2022-10-11T01:44:41.950Z,1017.82
2022-10-11T01:45:41.912Z,1017.84
2022-10-11T01:46:41.883Z,1017.83
2022-10-11T01:47:41.862Z,1017.89
2022-10-11T01:48:41.869Z,1017.84
2022-10-11T01:49:41.879Z,1017.86
2022-10-11T01:50:41.839Z,1017.87
2022-10-11T01:51:45.210Z,1017.89
2022-10-11T01:52:42.819Z,1017.84
2022-10-11T01:53:41.804Z,1017.81
2022-10-11T01:55:04.367Z,1017.78
2022-10-11T01:55:42.832Z,1017.82
2022-10-11T01:56:41.781Z,1017.79
2022-10-11T01:57:41.752Z,1017.80
2022-10-11T01:58:41.752Z,1017.78
2022-10-11T01:59:41.799Z,1017.79
2022-10-11T02:00:41.723Z,1017.78
2022-10-11T02:01:42.011Z,1017.80
2022-10-11T02:02:41.711Z,1017.79
2022-10-11T02:03:41.691Z,1017.79
2022-10-11T02:04:41.691Z,1017.83
2022-10-11T02:05:41.671Z,1017.80
2022-10-11T02:06:41.819Z,1017.83
2022-10-11T02:07:41.653Z,1017.79
2022-10-11T02:08:41.640Z,1017.81
2022-10-11T02:09:41.631Z,1017.84
2022-10-11T02:10:41.630Z,1017.80
2022-10-11T02:11:44.849Z,1017.84
2022-10-11T02:12:41.599Z,1017.86
2022-10-11T02:13:41.591Z,1017.86
2022-10-11T02:14:41.588Z,1017.88
2022-10-11T02:15:41.568Z,1017.86
2022-10-11T02:16:41.578Z,1017.93
2022-10-11T02:17:41.581Z,1017.86
2022-10-11T02:18:41.540Z,1017.92
2022-10-11T02:19:41.720Z,1017.90
2022-10-11T02:20:41.519Z,1017.93
2022-10-11T02:21:41.499Z,1017.93
2022-10-11T02:22:41.497Z,1017.95
2022-10-11T02:23:41.478Z,1017.94
2022-10-11T02:24:41.499Z,1017.91
2022-10-11T02:25:41.518Z,1017.94
2022-10-11T02:26:41.451Z,1017.88
2022-10-11T02:27:41.529Z,1017.91
2022-10-11T02:28:41.521Z,1017.88
2022-10-11T02:29:41.417Z,1017.90
2022-10-11T02:30:41.409Z,1017.94
2022-10-11T02:31:41.388Z,1017.92
2022-10-11T02:32:41.393Z,1017.92
2022-10-11T02:33:41.377Z,1017.87
2022-10-11T02:34:41.390Z,1017.90
2022-10-11T02:35:41.348Z,1017.93
2022-10-11T02:36:41.342Z,1017.93
2022-10-11T02:37:41.327Z,1017.95
2022-10-11T02:38:41.348Z,1017.96
2022-10-11T02:39:41.327Z,1017.95
2022-10-11T02:40:41.352Z,1018.01
2022-10-11T02:41:41.277Z,1018.01
2022-10-11T02:42:41.279Z,1018.00
2022-10-11T02:43:41.264Z,1017.97
2022-10-11T02:44:41.258Z,1018.03
2022-10-11T02:45:41.304Z,1018.00
2022-10-11T02:46:41.237Z,1018.08
2022-10-11T02:47:41.232Z,1018.05
2022-10-11T02:48:41.218Z,1018.05
2022-10-11T02:49:41.268Z,1018.01
2022-10-11T02:50:42.079Z,1018.02
2022-10-11T02:51:41.187Z,1018.03
2022-10-11T02:52:41.176Z,1018.06
2022-10-11T02:53:41.168Z,1018.11
2022-10-11T02:54:41.147Z,1018.06
2022-10-11T02:55:41.166Z,1018.08
2022-10-11T02:56:41.126Z,1018.08
2022-10-11T02:57:41.109Z,1018.08
2022-10-11T02:58:41.114Z,1018.06
2022-10-11T02:59:41.096Z,1018.05
2022-10-11T03:00:41.087Z,1018.07
2022-10-11T03:01:41.180Z,1018.09
2022-10-11T03:02:41.065Z,1018.05
2022-10-11T03:03:41.046Z,1018.09
2022-10-11T03:04:41.045Z,1018.07
2022-10-11T03:05:41.024Z,1018.11
2022-10-11T03:06:41.043Z,1018.14
2022-10-11T03:07:41.047Z,1018.14
2022-10-11T03:08:40.995Z,1018.15
2022-10-11T03:09:41.013Z,1018.15
2022-10-11T03:10:40.974Z,1018.18
2022-10-11T03:11:40.955Z,1018.17
2022-10-11T03:12:40.955Z,1018.20
2022-10-11T03:13:41.004Z,1018.23
2022-10-11T03:14:40.946Z,1018.22
2022-10-11T03:15:40.935Z,1018.18
2022-10-11T03:16:40.914Z,1018.22
2022-10-11T03:17:40.894Z,1018.19
2022-10-11T03:18:40.885Z,1018.28
2022-10-11T03:19:40.926Z,1018.18
2022-10-11T03:20:40.931Z,1018.25
2022-10-11T03:21:40.855Z,1018.25
2022-10-11T03:22:40.844Z,1018.24
2022-10-11T03:23:40.832Z,1018.28
2022-10-11T03:24:40.853Z,1018.27
2022-10-11T03:25:47.863Z,1018.27
2022-10-11T03:26:40.814Z,1018.29
2022-10-11T03:27:40.800Z,1018.29
2022-10-11T03:28:40.861Z,1018.31
2022-10-11T03:29:40.768Z,1018.31
2022-10-11T03:30:40.826Z,1018.31
2022-10-11T03:31:40.751Z,1018.34
2022-10-11T03:32:40.745Z,1018.36
2022-10-11T03:33:40.730Z,1018.42
2022-10-11T03:34:40.742Z,1018.36
2022-10-11T03:35:40.711Z,1018.41
2022-10-11T03:36:40.730Z,1018.49
2022-10-11T03:37:40.730Z,1018.46
2022-10-11T03:38:40.684Z,1018.46
2022-10-11T03:39:40.660Z,1018.48
2022-10-11T03:40:40.692Z,1018.52
2022-10-11T03:41:40.639Z,1018.54
2022-10-11T03:42:40.691Z,1018.52
2022-10-11T03:43:40.619Z,1018.56
2022-10-11T03:44:40.611Z,1018.53
2022-10-11T03:45:40.608Z,1018.54
2022-10-11T03:46:40.630Z,1018.54
2022-10-11T03:47:40.581Z,1018.55
2022-10-11T03:48:40.570Z,1018.55
2022-10-11T03:49:43.585Z,1018.58
2022-10-11T03:50:40.586Z,1018.57
2022-10-11T03:51:40.559Z,1018.57
2022-10-11T03:52:40.528Z,1018.56
2022-10-11T03:53:40.519Z,1018.58
2022-10-11T03:54:40.538Z,1018.60
2022-10-11T03:55:40.501Z,1018.58
2022-10-11T03:56:40.480Z,1018.61
2022-10-11T03:57:40.500Z,1018.59
2022-10-11T03:58:40.470Z,1018.61
2022-10-11T03:59:40.501Z,1018.61
2022-10-11T04:00:40.437Z,1018.63
2022-10-11T04:01:40.483Z,1018.64
2022-10-11T04:02:40.409Z,1018.67
2022-10-11T04:03:40.406Z,1018.65
2022-10-11T04:04:40.428Z,1018.63
2022-10-11T04:05:40.385Z,1018.65
2022-10-11T04:06:40.395Z,1018.70
2022-10-11T04:07:40.371Z,1018.64
2022-10-11T04:08:40.433Z,1018.67
2022-10-11T04:09:40.356Z,1018.60
2022-10-11T04:10:40.377Z,1018.65
2022-10-11T04:11:40.318Z,1018.67
2022-10-11T04:12:40.317Z,1018.65
2022-10-11T04:13:40.305Z,1018.68
2022-10-11T04:14:40.327Z,1018.68
2022-10-11T04:15:40.294Z,1018.71
2022-10-11T04:16:40.298Z,1018.70
2022-10-11T04:17:40.287Z,1018.66
2022-10-11T04:18:40.240Z,1018.75
2022-10-11T04:19:40.277Z,1018.77
2022-10-11T04:20:40.217Z,1018.73
2022-10-11T04:21:43.583Z,1018.78
2022-10-11T04:22:40.231Z,1018.75
2022-10-11T04:23:40.187Z,1018.78
2022-10-11T04:24:40.173Z,1018.76
2022-10-11T04:25:40.218Z,1018.74
2022-10-11T04:26:40.156Z,1018.81
2022-10-11T04:27:40.216Z,1018.79
2022-10-11T04:28:40.263Z,1018.80
2022-10-11T04:29:40.127Z,1018.79
2022-10-11T04:30:40.114Z,1018.89
2022-10-11T04:31:40.203Z,1018.83
2022-10-11T04:32:40.087Z,1018.88
2022-10-11T04:33:40.084Z,1018.84
2022-10-11T04:34:40.106Z,1018.89
2022-10-11T04:35:40.063Z,1018.88
2022-10-11T04:36:40.051Z,1018.85
2022-10-11T04:37:40.035Z,1018.86
2022-10-11T04:38:40.031Z,1018.84
2022-10-11T04:39:40.015Z,1018.85
2022-10-11T04:40:40.113Z,1018.84
2022-10-11T04:41:40.005Z,1018.86
2022-10-11T04:42:40.025Z,1018.90
2022-10-11T04:43:39.976Z,1018.89
2022-10-11T04:44:39.993Z,1018.86
2022-10-11T04:45:40.002Z,1018.91
2022-10-11T04:46:39.975Z,1018.92
2022-10-11T04:47:39.935Z,1018.92
2022-10-11T04:48:39.945Z,1018.90
2022-10-11T04:49:39.903Z,1018.92
2022-10-11T04:50:39.893Z,1018.95
2022-10-11T04:51:39.891Z,1018.94
2022-10-11T04:52:39.876Z,1018.99
2022-10-11T04:53:39.903Z,1019.01
2022-10-11T04:54:39.854Z,1019.01
2022-10-11T04:55:39.880Z,1018.96
2022-10-11T04:56:39.834Z,1019.01
2022-10-11T04:57:39.838Z,1019.06
2022-10-11T04:58:39.846Z,1019.07
2022-10-11T04:59:39.803Z,1019.05
2022-10-11T05:00:39.791Z,1019.04
2022-10-11T05:01:39.907Z,1019.04
2022-10-11T05:02:39.766Z,1019.02
2022-10-11T05:03:39.794Z,1018.99
2022-10-11T05:04:39.742Z,1018.99
2022-10-11T05:05:39.785Z,1019.05
2022-10-11T05:06:39.765Z,1019.01
2022-10-11T05:07:39.713Z,1019.07
2022-10-11T05:08:39.702Z,1019.06
2022-10-11T05:09:39.691Z,1019.09
2022-10-11T05:10:39.673Z,1019.06
2022-10-11T05:11:39.673Z,1019.08
2022-10-11T05:12:39.702Z,1019.10
2022-10-11T05:13:39.921Z,1019.08
2022-10-11T05:14:39.652Z,1019.06
2022-10-11T05:15:39.632Z,1019.09
2022-10-11T05:16:39.614Z,1019.10
2022-10-11T05:17:39.611Z,1019.14
2022-10-11T05:18:39.598Z,1019.13
2022-10-11T05:19:39.624Z,1019.10
2022-10-11T05:20:39.572Z,1019.18
2022-10-11T05:21:39.571Z,1019.19
2022-10-11T05:22:39.551Z,1019.18
2022-10-11T05:23:39.572Z,1019.16
2022-10-11T05:24:39.552Z,1019.14
2022-10-11T05:25:39.519Z,1019.16
2022-10-11T05:26:39.512Z,1019.19
2022-10-11T05:27:39.501Z,1019.20
2022-10-11T05:28:39.598Z,1019.15
2022-10-11T05:29:39.480Z,1019.21
2022-10-11T05:30:39.470Z,1019.18
2022-10-11T05:31:39.451Z,1019.20
2022-10-11T05:32:39.430Z,1019.19
2022-10-11T05:33:39.439Z,1019.16
2022-10-11T05:34:39.490Z,1019.15
2022-10-11T05:35:39.411Z,1019.15
2022-10-11T05:36:39.400Z,1019.13
2022-10-11T05:37:39.395Z,1019.21
2022-10-11T05:38:39.385Z,1019.23
2022-10-11T05:39:39.370Z,1019.20
2022-10-11T05:40:39.498Z,1019.23
2022-10-11T05:41:39.390Z,1019.21
2022-10-11T05:42:39.331Z,1019.20
2022-10-11T05:43:39.329Z,1019.24
2022-10-11T05:44:39.310Z,1019.22
2022-10-11T05:45:39.319Z,1019.28
2022-10-11T05:46:39.331Z,1019.24
2022-10-11T05:47:39.289Z,1019.27
2022-10-11T05:48:39.269Z,1019.28
2022-10-11T05:49:39.283Z,1019.29
2022-10-11T05:50:39.289Z,1019.25
2022-10-11T05:51:39.285Z,1019.29
2022-10-11T05:52:39.231Z,1019.35
2022-10-11T05:53:39.245Z,1019.34
2022-10-11T05:54:39.198Z,1019.31
2022-10-11T05:55:39.203Z,1019.34
2022-10-11T05:56:39.253Z,1019.40
2022-10-11T05:57:39.167Z,1019.43
2022-10-11T05:58:39.198Z,1019.42
2022-10-11T05:59:39.147Z,1019.44
2022-10-11T06:00:39.139Z,1019.46
2022-10-11T06:01:39.250Z,1019.48
2022-10-11T06:02:39.129Z,1019.49
2022-10-11T06:03:39.137Z,1019.48
2022-10-11T06:04:39.096Z,1019.48
2022-10-11T06:05:39.084Z,1019.45
2022-10-11T06:06:39.107Z,1019.51
2022-10-11T06:07:39.057Z,1019.51
2022-10-11T06:08:39.047Z,1019.48
2022-10-11T06:09:39.076Z,1019.55
2022-10-11T06:10:39.041Z,1019.53
2022-10-11T06:11:39.065Z,1019.56
2022-10-11T06:12:39.008Z,1019.53
2022-10-11T06:13:39.029Z,1019.55
2022-10-11T06:14:39.084Z,1019.58
2022-10-11T06:15:38.979Z,1019.58
2022-10-11T06:16:38.968Z,1019.59
2022-10-11T06:17:38.956Z,1019.60
2022-10-11T06:18:38.978Z,1019.54
2022-10-11T06:19:38.977Z,1019.58
2022-10-11T06:20:38.928Z,1019.54
2022-10-11T06:21:38.916Z,1019.56
2022-10-11T06:22:38.946Z,1019.65
2022-10-11T06:23:38.906Z,1019.63
2022-10-11T06:24:38.886Z,1019.64
2022-10-11T06:25:38.963Z,1019.64
2022-10-11T06:26:40.626Z,1019.64
2022-10-11T06:27:38.864Z,1019.77
2022-10-11T06:28:38.916Z,1019.70
2022-10-11T06:29:38.833Z,1019.73
2022-10-11T06:30:38.816Z,1019.78
2022-10-11T06:31:38.816Z,1019.78
2022-10-11T06:32:38.824Z,1019.79
2022-10-11T06:33:38.803Z,1019.78
2022-10-11T06:34:38.785Z,1019.78
2022-10-11T06:35:38.797Z,1019.81
2022-10-11T06:36:38.755Z,1019.84
2022-10-11T06:37:38.754Z,1019.83
2022-10-11T06:38:43.829Z,1019.85
2022-10-11T06:39:39.835Z,1019.85
2022-10-11T06:40:38.706Z,1019.87
2022-10-11T06:41:38.715Z,1019.88
2022-10-11T06:42:38.707Z,1019.89
2022-10-11T06:43:38.687Z,1019.87
2022-10-11T06:44:38.706Z,1019.89
2022-10-11T06:45:38.990Z,1019.90
2022-10-11T06:46:38.674Z,1019.92
2022-10-11T06:47:38.693Z,1019.84
2022-10-11T06:48:38.622Z,1019.89
2022-10-11T06:49:38.613Z,1019.87
2022-10-11T06:50:58.663Z,1019.93
2022-10-11T06:51:39.613Z,1019.95
2022-10-11T06:52:38.580Z,1019.93
2022-10-11T06:53:38.573Z,1019.96
2022-10-11T06:54:43.921Z,1019.96
2022-10-11T06:55:39.658Z,1019.96
2022-10-11T06:56:38.613Z,1020.00
2022-10-11T06:57:38.572Z,1019.99
2022-10-11T06:58:38.516Z,1020.00
2022-10-11T06:59:38.503Z,1020.03
2022-10-11T07:00:38.549Z,1020.06
2022-10-11T07:01:38.649Z,1020.06
2022-10-11T07:02:38.475Z,1020.04
2022-10-11T07:03:38.463Z,1020.03
2022-10-11T07:04:38.452Z,1020.09
2022-10-11T07:05:38.454Z,1020.10
2022-10-11T07:06:43.691Z,1020.07
2022-10-11T07:07:38.432Z,1020.12
2022-10-11T07:08:38.419Z,1020.13
2022-10-11T07:09:38.419Z,1020.18
2022-10-11T07:10:38.381Z,1020.20
2022-10-11T07:11:38.424Z,1020.19
2022-10-11T07:12:38.523Z,1020.18
2022-10-11T07:13:38.368Z,1020.20
2022-10-11T07:14:38.340Z,1020.24
2022-10-11T07:15:38.357Z,1020.23
2022-10-11T07:16:38.337Z,1020.23
2022-10-11T07:17:38.315Z,1020.26
2022-10-11T07:18:38.500Z,1020.33
2022-10-11T07:19:38.291Z,1020.32
2022-10-11T07:20:38.278Z,1020.32
2022-10-11T07:21:38.269Z,1020.35
2022-10-11T07:22:38.260Z,1020.31
2022-10-11T07:23:38.541Z,1020.33
2022-10-11T07:24:38.238Z,1020.36
2022-10-11T07:25:38.219Z,1020.28
2022-10-11T07:26:39.338Z,1020.34
2022-10-11T07:27:38.210Z,1020.33
2022-10-11T07:28:38.251Z,1020.37
2022-10-11T07:29:38.209Z,1020.40
2022-10-11T07:30:38.166Z,1020.40
2022-10-11T07:31:38.208Z,1020.45
2022-10-11T07:32:38.149Z,1020.40
2022-10-11T07:33:38.140Z,1020.36
2022-10-11T07:34:38.250Z,1020.42
2022-10-11T07:35:38.194Z,1020.41
2022-10-11T07:36:38.111Z,1020.43
2022-10-11T07:37:38.098Z,1020.41
2022-10-11T07:38:38.128Z,1020.42
2022-10-11T07:39:38.087Z,1020.47
2022-10-11T07:40:38.077Z,1020.45
2022-10-11T07:41:41.819Z,1020.39
2022-10-11T07:42:39.047Z,1020.43
2022-10-11T07:43:38.050Z,1020.41
2022-10-11T07:44:38.228Z,1020.40
2022-10-11T07:45:38.019Z,1020.41
2022-10-11T07:46:38.055Z,1020.42
2022-10-11T07:47:37.990Z,1020.41
2022-10-11T07:48:38.007Z,1020.41
2022-10-11T07:49:38.006Z,1020.41
2022-10-11T07:50:37.959Z,1020.40
2022-10-11T07:51:37.948Z,1020.40
2022-10-11T07:52:37.939Z,1020.38
2022-10-11T07:53:37.920Z,1020.43
2022-10-11T07:54:37.898Z,1020.39
2022-10-11T07:55:37.946Z,1020.37
2022-10-11T07:56:37.885Z,1020.37
2022-10-11T07:57:37.878Z,1020.39
2022-10-11T07:58:37.869Z,1020.37
2022-10-11T07:59:37.858Z,1020.35
2022-10-11T08:00:37.932Z,1020.41
2022-10-11T08:01:37.892Z,1020.42
2022-10-11T08:02:37.842Z,1020.44
2022-10-11T08:03:37.848Z,1020.39
2022-10-11T08:04:37.901Z,1020.42
2022-10-11T08:05:37.819Z,1020.46
2022-10-11T08:06:37.827Z,1020.45
2022-10-11T08:07:37.767Z,1020.49
2022-10-11T08:08:37.806Z,1020.44
2022-10-11T08:09:37.766Z,1020.43
2022-10-11T08:10:37.798Z,1020.43
2022-10-11T08:11:37.880Z,1020.44
2022-10-11T08:12:37.728Z,1020.42
2022-10-11T08:13:37.716Z,1020.43
2022-10-11T08:14:37.696Z,1020.41
2022-10-11T08:15:37.715Z,1020.41
2022-10-11T08:16:37.683Z,1020.43
2022-10-11T08:17:37.725Z,1020.49
2022-10-11T08:18:37.683Z,1020.47
2022-10-11T08:19:37.692Z,1020.45
2022-10-11T08:20:37.701Z,1020.45
2022-10-11T08:21:37.618Z,1020.49
2022-10-11T08:22:37.643Z,1020.48
2022-10-11T08:23:37.595Z,1020.49
2022-10-11T08:24:38.520Z,1020.44
2022-10-11T08:25:37.608Z,1020.48
2022-10-11T08:26:37.566Z,1020.43
2022-10-11T08:27:37.560Z,1020.45
2022-10-11T08:28:37.671Z,1020.47
2022-10-11T08:29:37.567Z,1020.48
2022-10-11T08:30:37.524Z,1020.44
2022-10-11T08:31:37.575Z,1020.52
2022-10-11T08:32:37.496Z,1020.43
2022-10-11T08:33:37.489Z,1020.43
2022-10-11T08:34:37.510Z,1020.37
2022-10-11T08:35:37.493Z,1020.40
2022-10-11T08:36:37.461Z,1020.45
2022-10-11T08:37:37.436Z,1020.44
2022-10-11T08:38:37.492Z,1020.44
2022-10-11T08:39:37.446Z,1020.44
2022-10-11T08:40:37.436Z,1020.42
2022-10-11T08:41:37.397Z,1020.43
2022-10-11T08:42:37.413Z,1020.44
2022-10-11T08:43:37.375Z,1020.45
2022-10-11T08:45:05.617Z,1020.45
2022-10-11T08:45:38.359Z,1020.46
2022-10-11T08:46:37.407Z,1020.48
2022-10-11T08:47:37.366Z,1020.52
2022-10-11T08:48:37.325Z,1020.49
2022-10-11T08:49:37.305Z,1020.53
2022-10-11T08:50:37.308Z,1020.50
2022-10-11T08:51:37.295Z,1020.48
2022-10-11T08:52:37.285Z,1020.52
2022-10-11T08:53:37.484Z,1020.51
2022-10-11T08:54:37.356Z,1020.52
2022-10-11T08:55:37.256Z,1020.55
2022-10-11T08:56:37.242Z,1020.52
2022-10-11T08:57:37.228Z,1020.52
2022-10-11T08:58:37.237Z,1020.53
2022-10-11T08:59:37.204Z,1020.55
2022-10-11T09:00:40.867Z,1020.52
2022-10-11T09:01:37.384Z,1020.56
2022-10-11T09:03:02.841Z,1020.58
2022-10-11T09:03:38.173Z,1020.55
2022-10-11T09:04:37.156Z,1020.60
2022-10-11T09:05:37.145Z,1020.58
2022-10-11T09:06:47.955Z,1020.55
2022-10-11T09:07:37.114Z,1020.60
2022-10-11T09:08:37.116Z,1020.55
2022-10-11T09:09:37.106Z,1020.61
2022-10-11T09:10:37.085Z,1020.61
2022-10-11T09:11:37.066Z,1020.61
2022-10-11T09:12:40.643Z,1020.60
2022-10-11T09:13:37.043Z,1020.59
2022-10-11T09:14:37.071Z,1020.58
2022-10-11T09:15:37.034Z,1020.58
2022-10-11T09:16:37.042Z,1020.56
2022-10-11T09:17:37.003Z,1020.59
2022-10-11T09:18:37.049Z,1020.54
2022-10-11T09:19:36.984Z,1020.61
2022-10-11T09:20:36.990Z,1020.61
2022-10-11T09:21:36.978Z,1020.60
2022-10-11T09:22:36.956Z,1020.61
2022-10-11T09:23:36.934Z,1020.60
2022-10-11T09:24:37.079Z,1020.60
2022-10-11T09:25:43.985Z,1020.58
2022-10-11T09:26:36.921Z,1020.58
2022-10-11T09:28:01.341Z,1020.58
2022-10-11T09:28:37.907Z,1020.53
2022-10-11T09:29:36.861Z,1020.54
2022-10-11T09:30:36.861Z,1020.51
2022-10-11T09:31:36.868Z,1020.54
2022-10-11T09:32:36.861Z,1020.53
2022-10-11T09:33:36.822Z,1020.57
2022-10-11T09:34:36.810Z,1020.53
2022-10-11T09:35:36.799Z,1020.49
2022-10-11T09:36:36.830Z,1020.49
2022-10-11T09:37:36.804Z,1020.49
2022-10-11T09:38:36.771Z,1020.49
2022-10-11T09:39:36.772Z,1020.49
2022-10-11T09:40:36.770Z,1020.56
2022-10-11T09:41:36.741Z,1020.54
2022-10-11T09:42:36.741Z,1020.52
2022-10-11T09:43:36.745Z,1020.54
2022-10-11T09:44:36.711Z,1020.53
2022-10-11T09:45:36.713Z,1020.53
2022-10-11T09:46:36.683Z,1020.56
2022-10-11T09:47:36.669Z,1020.53
2022-10-11T09:48:36.660Z,1020.51
2022-10-11T09:49:36.641Z,1020.54
2022-10-11T09:50:36.689Z,1020.55
2022-10-11T09:51:36.663Z,1020.59
2022-10-11T09:52:36.630Z,1020.53
2022-10-11T09:53:36.613Z,1020.53
2022-10-11T09:54:36.669Z,1020.53
2022-10-11T09:55:36.578Z,1020.53
2022-10-11T09:56:36.569Z,1020.55
2022-10-11T09:57:36.582Z,1020.50
2022-10-11T09:58:36.580Z,1020.52
2022-10-11T09:59:36.546Z,1020.47
2022-10-11T10:00:36.540Z,1020.52
2022-10-11T10:01:36.614Z,1020.49
2022-10-11T10:02:36.527Z,1020.55
2022-10-11T10:03:36.510Z,1020.54
2022-10-11T10:04:36.500Z,1020.50
2022-10-11T10:05:36.488Z,1020.52
2022-10-11T10:06:36.492Z,1020.55
2022-10-11T10:07:39.409Z,1020.53
2022-10-11T10:08:36.542Z,1020.52
2022-10-11T10:09:36.431Z,1020.50
2022-10-11T10:10:36.432Z,1020.54
2022-10-11T10:11:36.462Z,1020.56
2022-10-11T10:12:36.409Z,1020.59
2022-10-11T10:13:36.403Z,1020.59
2022-10-11T10:14:36.387Z,1020.60
2022-10-11T10:15:36.388Z,1020.59
2022-10-11T10:16:44.849Z,1020.58
2022-10-11T10:17:36.366Z,1020.58
2022-10-11T10:18:36.351Z,1020.54
2022-10-11T10:19:38.890Z,1020.56
2022-10-11T10:20:36.319Z,1020.60
2022-10-11T10:21:36.329Z,1020.61
2022-10-11T10:22:36.319Z,1020.60
2022-10-11T10:23:36.278Z,1020.59
2022-10-11T10:24:36.269Z,1020.64
2022-10-11T10:25:40.882Z,1020.58
2022-10-11T10:26:37.283Z,1020.59
2022-10-11T10:27:36.240Z,1020.53
2022-10-11T10:28:36.273Z,1020.62
2022-10-11T10:29:36.218Z,1020.63
2022-10-11T10:30:36.247Z,1020.64
2022-10-11T10:31:49.540Z,1020.64
2022-10-11T10:32:37.189Z,1020.70
2022-10-11T10:33:36.198Z,1020.64
2022-10-11T10:34:36.176Z,1020.64
2022-10-11T10:35:36.149Z,1020.57
2022-10-11T10:36:36.139Z,1020.60
2022-10-11T10:37:36.130Z,1020.58
2022-10-11T10:38:36.176Z,1020.57
2022-10-11T10:39:36.110Z,1020.61
2022-10-11T10:40:36.101Z,1020.66
2022-10-11T10:41:36.110Z,1020.63
2022-10-11T10:42:36.090Z,1020.62
2022-10-11T10:43:36.071Z,1020.63
2022-10-11T10:44:36.059Z,1020.60
2022-10-11T10:45:36.039Z,1020.60
2022-10-11T10:46:36.044Z,1020.66
2022-10-11T10:47:36.167Z,1020.62
2022-10-11T10:49:02.040Z,1020.58
2022-10-11T10:49:54.563Z,1020.61
2022-10-11T10:50:36.989Z,1020.58
2022-10-11T10:51:35.982Z,1020.53
2022-10-11T10:52:36.025Z,1020.56
2022-10-11T10:53:35.979Z,1020.50
2022-10-11T10:54:35.949Z,1020.49
2022-10-11T10:55:35.959Z,1020.48
2022-10-11T10:56:35.950Z,1020.50
2022-10-11T10:57:35.952Z,1020.46
2022-10-11T10:58:35.908Z,1020.51
2022-10-11T10:59:35.889Z,1020.49
2022-10-11T11:00:35.880Z,1020.53
2022-10-11T11:01:35.934Z,1020.53
2022-10-11T11:02:40.689Z,1020.51
2022-10-11T11:03:36.920Z,1020.53
2022-10-11T11:04:39.929Z,1020.47
2022-10-11T11:05:35.819Z,1020.53
2022-10-11T11:06:36.681Z,1020.53
2022-10-11T11:07:35.849Z,1020.55
2022-10-11T11:08:35.789Z,1020.55
2022-10-11T11:09:35.780Z,1020.50
2022-10-11T11:10:35.772Z,1020.48
2022-10-11T11:11:38.302Z,1020.47
2022-10-11T11:12:35.769Z,1020.52
2022-10-11T11:13:35.735Z,1020.47
2022-10-11T11:14:35.728Z,1020.50
2022-10-11T11:15:38.103Z,1020.48
2022-10-11T11:16:35.706Z,1020.52
2022-10-11T11:17:35.699Z,1020.50
2022-10-11T11:18:35.808Z,1020.53
2022-10-11T11:19:35.680Z,1020.50
2022-10-11T11:20:35.678Z,1020.52
2022-10-11T11:22:46.021Z,1020.52
2022-10-11T11:23:46.024Z,1020.50
2022-10-11T11:24:48.620Z,1020.50
2022-10-11T11:25:45.971Z,1020.51
2022-10-11T11:26:45.990Z,1020.50
2022-10-11T11:27:45.954Z,1020.51
2022-10-11T11:28:45.992Z,1020.45
2022-10-11T11:29:45.930Z,1020.47
2022-10-11T11:30:45.920Z,1020.47
2022-10-11T11:31:45.940Z,1020.42
2022-10-11T11:32:46.029Z,1020.44
2022-10-11T11:33:48.800Z,1020.49
2022-10-11T11:34:45.870Z,1020.41
2022-10-11T11:35:45.872Z,1020.42
2022-10-11T11:36:45.880Z,1020.39
2022-10-11T11:37:45.879Z,1020.42
2022-10-11T11:38:45.844Z,1020.36
2022-10-11T11:39:45.837Z,1020.38
2022-10-11T11:40:45.814Z,1020.39
2022-10-11T11:41:45.811Z,1020.35
2022-10-11T11:42:45.819Z,1020.34
2022-10-11T11:43:45.811Z,1020.31
2022-10-11T11:44:45.779Z,1020.32
2022-10-11T11:45:45.774Z,1020.30
2022-10-11T11:46:45.750Z,1020.27
2022-10-11T11:47:46.003Z,1020.27
2022-10-11T11:48:45.735Z,1020.23
2022-10-11T11:49:45.729Z,1020.24
2022-10-11T11:50:45.751Z,1020.26
2022-10-11T11:51:45.702Z,1020.26
2022-10-11T11:52:45.722Z,1020.27
2022-10-11T11:53:45.678Z,1020.22
2022-10-11T11:54:45.668Z,1020.25
2022-10-11T11:55:45.662Z,1020.20
2022-10-11T11:56:45.656Z,1020.18
2022-10-11T11:57:45.646Z,1020.20
2022-10-11T11:58:45.650Z,1020.21
2022-10-11T11:59:45.612Z,1020.25
2022-10-11T12:00:50.870Z,1020.20
2022-10-11T12:01:45.666Z,1020.20
2022-10-11T12:02:45.582Z,1020.21
2022-10-11T12:03:45.571Z,1020.12
2022-10-11T12:04:45.569Z,1020.15
2022-10-11T12:05:45.551Z,1020.13
2022-10-11T12:07:14.531Z,1020.14